createdAt,value
2019-04-21T00:01:20.368Z,8.17
2019-04-21T00:03:56.720Z,8.10
2019-04-21T00:06:41.205Z,7.33
2019-04-21T00:09:19.224Z,8.27
2019-04-21T00:11:40.869Z,8.57
2019-04-21T00:14:06.080Z,8.90
2019-04-21T00:16:34.689Z,8.23
2019-04-21T00:19:10.767Z,8.27
2019-04-21T00:21:43.683Z,7.00
2019-04-21T00:24:24.255Z,6.23
2019-04-21T00:27:03.765Z,6.53
2019-04-21T00:29:38.527Z,6.33
2019-04-21T00:32:00.665Z,6.40
2019-04-21T00:34:17.710Z,6.33
2019-04-21T00:37:01.195Z,5.60
2019-04-21T00:39:48.994Z,5.40
2019-04-21T00:42:09.782Z,5.33
2019-04-21T00:44:29.831Z,5.40
2019-04-21T00:47:05.509Z,6.13
2019-04-21T00:49:42.712Z,6.13
2019-04-21T00:52:51.487Z,5.80
2019-04-21T00:55:30.942Z,6.00
2019-04-21T00:57:58.579Z,5.70
2019-04-21T01:02:57.711Z,6.73
2019-04-21T01:05:30.122Z,5.90
2019-04-21T01:08:01.102Z,6.37
2019-04-21T01:10:24.468Z,6.07
2019-04-21T01:13:04.017Z,6.37
2019-04-21T01:15:37.387Z,5.50
2019-04-21T01:18:04.840Z,6.43
2019-04-21T01:20:17.693Z,6.30
2019-04-21T01:22:46.519Z,5.97
2019-04-21T01:25:22.885Z,7.07
2019-04-21T01:28:03.866Z,6.33
2019-04-21T01:30:39.934Z,6.80
2019-04-21T01:33:12.389Z,6.30
2019-04-21T01:35:39.790Z,6.53
2019-04-21T01:38:19.577Z,6.40
2019-04-21T01:40:47.683Z,7.10
2019-04-21T01:43:13.593Z,6.37
2019-04-21T01:45:47.299Z,6.77
2019-04-21T01:48:12.884Z,6.50
2019-04-21T01:50:47.034Z,6.50
2019-04-21T01:53:30.701Z,6.33
2019-04-21T01:56:03.370Z,6.50
2019-04-21T01:58:28.814Z,5.47
2019-04-21T02:01:05.677Z,6.77
2019-04-21T02:03:52.551Z,5.67
2019-04-21T02:06:18.513Z,5.93
2019-04-21T02:08:44.241Z,5.83
2019-04-21T02:11:19.124Z,6.03
2019-04-21T02:13:53.535Z,5.93
2019-04-21T02:16:19.024Z,6.73
2019-04-21T02:18:52.958Z,6.50
2019-04-21T02:21:18.150Z,6.97
2019-04-21T02:24:01.633Z,6.60
2019-04-21T02:26:26.671Z,7.20
2019-04-21T02:29:03.189Z,7.17
2019-04-21T02:31:37.641Z,7.90
2019-04-21T02:34:09.136Z,7.80
2019-04-21T02:39:16.701Z,8.60
2019-04-21T02:41:46.997Z,8.33
2019-04-21T02:44:30.320Z,7.23
2019-04-21T02:49:27.498Z,7.30
2019-04-21T02:51:54.460Z,8.20
2019-04-21T02:54:45.758Z,9.87
2019-04-21T03:05:11.543Z,9.73
2019-04-21T03:07:46.402Z,8.33
2019-04-21T03:10:11.540Z,8.33
2019-04-21T03:12:38.636Z,7.87
2019-04-21T03:15:33.211Z,8.50
2019-04-21T03:17:52.699Z,8.03
2019-04-21T03:23:02.087Z,8.33
2019-04-21T03:25:33.194Z,8.43
2019-04-21T03:28:00.692Z,8.47
2019-04-21T03:30:47.713Z,7.83
2019-04-21T03:36:00.797Z,8.60
2019-04-21T03:38:00.212Z,9.30
2019-04-21T03:40:24.067Z,8.60
2019-04-21T03:42:57.778Z,15.40
2019-04-21T03:45:30.675Z,9.47
2019-04-21T03:50:39.562Z,9.73
2019-04-21T03:53:03.111Z,13.93
2019-04-21T04:00:59.499Z,9.47
2019-04-21T04:06:43.201Z,9.27
2019-04-21T04:09:21.277Z,8.50
2019-04-21T04:11:54.802Z,8.67
2019-04-21T04:16:58.523Z,9.37
2019-04-21T04:19:18.645Z,10.67
2019-04-21T04:21:57.496Z,10.73
2019-04-21T04:24:36.395Z,11.37
2019-04-21T04:26:57.021Z,10.47
2019-04-21T04:31:47.398Z,11.40
2019-04-21T04:37:05.989Z,10.67
2019-04-21T04:40:10.561Z,12.37
2019-04-21T04:47:59.855Z,10.80
2019-04-21T04:50:35.822Z,10.27
2019-04-21T04:53:12.697Z,9.97
2019-04-21T04:55:29.583Z,11.27
2019-04-21T05:02:58.783Z,9.00
2019-04-21T05:05:26.864Z,9.63
2019-04-21T05:08:39.521Z,9.57
2019-04-21T05:10:38.532Z,9.13
2019-04-21T05:13:02.234Z,8.43
2019-04-21T05:15:23.668Z,9.13
2019-04-21T05:18:04.933Z,9.40
2019-04-21T05:20:37.034Z,8.27
2019-04-21T05:23:00.552Z,9.03
2019-04-21T05:25:31.094Z,11.40
2019-04-21T05:27:56.928Z,11.20
2019-04-21T05:30:52.008Z,11.67
2019-04-21T05:33:33.946Z,10.80
2019-04-21T05:36:11.012Z,11.57
2019-04-21T05:39:01.199Z,11.40
2019-04-21T05:41:22.101Z,10.70
2019-04-21T05:44:05.074Z,10.33
2019-04-21T05:46:42.514Z,11.13
2019-04-21T05:49:11.018Z,11.07
2019-04-21T05:51:57.494Z,10.60
2019-04-21T05:54:40.908Z,9.47
2019-04-21T05:57:02.544Z,10.43
2019-04-21T05:59:33.965Z,10.00
2019-04-21T06:02:15.106Z,10.37
2019-04-21T06:07:13.242Z,10.40
2019-04-21T06:09:44.105Z,10.53
2019-04-21T06:12:10.777Z,10.10
2019-04-21T06:14:49.429Z,10.27
2019-04-21T06:17:19.784Z,9.70
2019-04-21T06:19:49.529Z,9.87
2019-04-21T06:22:14.802Z,9.53
2019-04-21T06:25:10.978Z,10.47
2019-04-21T06:27:29.888Z,10.93
2019-04-21T06:29:54.645Z,10.37
2019-04-21T06:40:15.240Z,10.17
2019-04-21T06:42:32.663Z,10.43
2019-04-21T06:45:05.950Z,10.80
2019-04-21T06:50:12.180Z,10.70
2019-04-21T06:52:50.110Z,10.87
2019-04-21T06:55:13.856Z,10.13
2019-04-21T06:57:44.445Z,10.20
2019-04-21T07:00:11.761Z,10.57
2019-04-21T07:05:18.157Z,9.57
2019-04-21T07:07:54.930Z,9.73
2019-04-21T07:10:14.133Z,9.00
2019-04-21T07:12:44.924Z,8.50
2019-04-21T07:15:19.518Z,8.93
2019-04-21T07:17:54.739Z,8.07
2019-04-21T07:20:21.987Z,8.17
2019-04-21T07:22:56.473Z,8.47
2019-04-21T07:25:28.183Z,7.20
2019-04-21T07:27:59.322Z,8.10
2019-04-21T07:30:31.728Z,7.50
2019-04-21T07:33:07.557Z,8.87
2019-04-21T07:35:32.184Z,8.43
2019-04-21T07:38:01.267Z,8.03
2019-04-21T07:40:28.613Z,7.77
2019-04-21T07:43:01.339Z,8.10
2019-04-21T07:45:33.414Z,8.17
2019-04-21T07:48:14.002Z,8.43
2019-04-21T07:50:52.071Z,9.30
2019-04-21T07:53:27.756Z,8.20
2019-04-21T07:55:37.427Z,7.97
2019-04-21T07:58:26.225Z,8.37
2019-04-21T08:01:07.420Z,7.73
2019-04-21T08:03:30.009Z,9.07
2019-04-21T08:08:26.581Z,8.37
2019-04-21T08:11:07.739Z,7.50
2019-04-21T08:16:04.700Z,8.33
2019-04-21T08:21:05.802Z,8.97
2019-04-21T08:23:39.926Z,9.20
2019-04-21T08:26:10.387Z,9.23
2019-04-21T08:31:13.995Z,8.77
2019-04-21T08:33:47.037Z,9.23
2019-04-21T08:38:48.429Z,10.07
2019-04-21T08:41:12.324Z,9.27
2019-04-21T08:43:51.403Z,8.00
2019-04-21T08:46:18.924Z,8.90
2019-04-21T08:51:30.167Z,9.17
2019-04-21T08:53:53.715Z,11.20
2019-04-21T08:56:43.195Z,12.20
2019-04-21T08:59:31.183Z,8.70
2019-04-21T09:02:29.801Z,7.90
2019-04-21T09:05:03.414Z,10.27
2019-04-21T09:07:36.205Z,9.93
2019-04-21T09:09:58.046Z,8.70
2019-04-21T09:12:33.134Z,9.73
2019-04-21T09:15:01.561Z,9.00
2019-04-21T09:17:28.569Z,9.37
2019-04-21T09:20:13.977Z,8.63
2019-04-21T09:22:37.701Z,7.23
2019-04-21T09:25:01.498Z,7.80
2019-04-21T09:27:39.417Z,7.90
2019-04-21T09:29:57.175Z,6.43
2019-04-21T09:32:25.731Z,6.17
2019-04-21T09:34:53.464Z,5.67
2019-04-21T09:37:37.177Z,6.57
2019-04-21T09:39:57.314Z,6.23
2019-04-21T09:42:33.310Z,5.80
2019-04-21T09:45:00.867Z,6.03
2019-04-21T09:47:35.123Z,5.83
2019-04-21T09:50:01.818Z,6.23
2019-04-21T09:52:39.664Z,7.10
2019-04-21T09:55:08.295Z,6.20
2019-04-21T09:57:41.501Z,5.43
2019-04-21T10:00:11.362Z,5.70
2019-04-21T10:02:42.765Z,4.63
2019-04-21T10:05:07.664Z,5.30
2019-04-21T10:07:41.937Z,5.57
2019-04-21T10:10:08.441Z,4.37
2019-04-21T10:12:37.862Z,4.73
2019-04-21T10:15:08.584Z,4.50
2019-04-21T10:17:45.079Z,4.33
2019-04-21T10:20:14.895Z,4.73
2019-04-21T10:22:44.787Z,4.93
2019-04-21T10:25:14.876Z,5.17
2019-04-21T10:27:45.261Z,4.30
2019-04-21T10:30:16.244Z,5.67
2019-04-21T10:32:46.026Z,4.40
2019-04-21T10:35:18.176Z,3.93
2019-04-21T10:37:58.156Z,3.07
2019-04-21T10:40:19.568Z,3.87
2019-04-21T10:42:49.970Z,3.77
2019-04-21T10:45:19.467Z,3.50
2019-04-21T10:47:49.366Z,3.70
2019-04-21T10:50:18.807Z,3.67
2019-04-21T10:53:16.708Z,3.20
2019-04-21T10:56:01.582Z,3.23
2019-04-21T10:58:22.528Z,3.60
2019-04-21T11:00:55.703Z,3.40
2019-04-21T11:03:36.907Z,4.03
2019-04-21T11:06:08.511Z,3.03
2019-04-21T11:08:43.344Z,3.23
2019-04-21T11:11:10.007Z,3.37
2019-04-21T11:13:40.950Z,3.90
2019-04-21T11:16:10.986Z,3.23
2019-04-21T11:18:41.952Z,3.60
2019-04-21T11:21:13.105Z,3.70
2019-04-21T11:23:43.860Z,4.43
2019-04-21T11:26:13.922Z,5.23
2019-04-21T11:28:43.347Z,3.90
2019-04-21T11:31:15.677Z,3.63
2019-04-21T11:33:45.494Z,3.60
2019-04-21T11:36:15.427Z,3.90
2019-04-21T11:39:06.049Z,3.57
2019-04-21T11:41:21.896Z,3.53
2019-04-21T11:43:51.411Z,4.27
2019-04-21T11:46:20.821Z,4.20
2019-04-21T11:48:50.461Z,4.40
2019-04-21T11:51:19.985Z,4.47
2019-04-21T11:53:50.694Z,6.20
2019-04-21T11:56:20.912Z,3.90
2019-04-21T11:58:50.272Z,4.13
2019-04-21T12:01:19.642Z,5.60
2019-04-21T12:03:49.613Z,5.63
2019-04-21T12:06:19.479Z,3.97
2019-04-21T12:08:51.518Z,5.87
2019-04-21T12:11:21.028Z,4.10
2019-04-21T12:13:50.416Z,5.20
2019-04-21T12:16:21.033Z,5.73
2019-04-21T12:18:50.998Z,3.70
2019-04-21T12:21:23.271Z,4.37
2019-04-21T12:23:54.400Z,4.03
2019-04-21T12:26:24.169Z,4.00
2019-04-21T12:28:53.692Z,4.03
2019-04-21T12:31:45.568Z,5.10
2019-04-21T12:34:16.159Z,4.00
2019-04-21T12:36:46.506Z,3.90
2019-04-21T12:39:16.847Z,6.00
2019-04-21T12:41:46.697Z,4.30
2019-04-21T12:44:16.181Z,7.83
2019-04-21T12:46:45.673Z,4.40
2019-04-21T12:49:15.941Z,4.10
2019-04-21T12:51:46.111Z,20.40
2019-04-21T12:54:15.588Z,4.80
2019-04-21T12:56:45.610Z,4.17
2019-04-21T12:59:17.333Z,4.33
2019-04-21T13:01:46.719Z,4.00
2019-04-21T13:04:16.133Z,5.33
2019-04-21T13:06:45.873Z,4.23
2019-04-21T13:09:19.785Z,3.73
2019-04-21T13:11:47.016Z,4.10
2019-04-21T13:14:17.869Z,5.33
2019-04-21T13:16:47.837Z,4.17
2019-04-21T13:19:17.668Z,12.07
2019-04-21T13:21:47.910Z,10.90
2019-04-21T13:24:17.852Z,7.43
2019-04-21T13:26:53.619Z,4.67
2019-04-21T13:29:18.671Z,4.07
2019-04-21T13:31:48.272Z,4.10
2019-04-21T13:34:18.008Z,3.80
2019-04-21T13:36:47.788Z,4.20
2019-04-21T13:39:55.536Z,4.20
2019-04-21T13:42:16.068Z,6.07
2019-04-21T13:44:37.122Z,5.93
2019-04-21T13:47:07.036Z,3.90
2019-04-21T13:49:37.145Z,4.07
2019-04-21T13:52:06.784Z,4.43
2019-04-21T13:54:36.207Z,4.30
2019-04-21T13:57:05.870Z,6.03
2019-04-21T13:59:36.344Z,4.00
2019-04-21T14:02:06.913Z,18.90
2019-04-21T14:04:37.765Z,4.70
2019-04-21T14:07:08.190Z,4.30
2019-04-21T14:09:47.650Z,4.17
2019-04-21T14:12:09.660Z,3.80
2019-04-21T14:14:39.004Z,4.00
2019-04-21T14:17:08.901Z,4.03
2019-04-21T14:19:39.419Z,4.80
2019-04-21T14:22:11.667Z,4.57
2019-04-21T14:24:41.535Z,5.50
2019-04-21T14:27:12.140Z,4.30
2019-04-21T14:29:41.809Z,5.63
2019-04-21T14:32:11.208Z,3.80
2019-04-21T14:34:41.985Z,4.43
2019-04-21T14:37:12.928Z,4.33
2019-04-21T14:39:52.764Z,4.87
2019-04-21T14:42:14.119Z,4.83
2019-04-21T14:44:45.065Z,5.23
2019-04-21T14:47:34.979Z,4.47
2019-04-21T14:50:24.506Z,4.27
2019-04-21T14:53:13.838Z,6.30
2019-04-21T14:55:45.795Z,4.77
2019-04-21T14:58:15.487Z,4.10
2019-04-21T15:01:02.165Z,4.07
2019-04-21T15:03:32.079Z,4.97
2019-04-21T15:06:01.541Z,4.37
2019-04-21T15:08:31.338Z,4.40
2019-04-21T15:11:01.138Z,4.33
2019-04-21T15:13:32.189Z,3.83
2019-04-21T15:16:02.748Z,4.40
2019-04-21T15:18:32.811Z,4.40
2019-04-21T15:21:03.614Z,4.53
2019-04-21T15:23:33.953Z,4.80
2019-04-21T15:26:04.159Z,5.10
2019-04-21T15:28:35.717Z,5.10
2019-04-21T15:31:05.117Z,4.93
2019-04-21T15:33:34.953Z,4.57
2019-04-21T15:36:05.101Z,4.03
2019-04-21T15:38:35.831Z,4.47
2019-04-21T15:41:10.085Z,4.80
2019-04-21T15:43:36.806Z,4.30
2019-04-21T15:46:06.779Z,4.33
2019-04-21T15:48:37.044Z,4.50
2019-04-21T15:51:08.531Z,4.67
2019-04-21T15:53:37.935Z,4.33
2019-04-21T15:56:30.962Z,5.50
2019-04-21T15:59:08.386Z,6.40
2019-04-21T16:01:46.415Z,4.67
2019-04-21T16:04:16.818Z,4.50
2019-04-21T16:06:47.729Z,4.47
2019-04-21T16:09:21.598Z,4.40
2019-04-21T16:11:49.748Z,4.20
2019-04-21T16:14:20.502Z,4.80
2019-04-21T16:16:51.621Z,5.00
2019-04-21T16:19:21.199Z,6.13
2019-04-21T16:22:01.121Z,4.57
2019-04-21T16:24:33.575Z,4.83
2019-04-21T16:27:08.442Z,6.53
2019-04-21T16:29:39.519Z,5.73
2019-04-21T16:32:09.297Z,5.10
2019-04-21T16:34:48.355Z,5.10
2019-04-21T16:37:11.841Z,5.23
2019-04-21T16:39:41.620Z,4.50
2019-04-21T16:42:12.064Z,4.33
2019-04-21T16:44:42.873Z,5.00
2019-04-21T16:47:13.807Z,4.00
2019-04-21T16:49:43.703Z,4.53
2019-04-21T16:52:20.445Z,4.77
2019-04-21T16:54:58.334Z,4.50
2019-04-21T16:57:35.721Z,4.47
2019-04-21T17:00:10.718Z,4.53
2019-04-21T17:02:40.877Z,4.77
2019-04-21T17:05:12.512Z,5.77
2019-04-21T17:07:43.027Z,5.10
2019-04-21T17:10:12.852Z,4.80
2019-04-21T17:12:43.270Z,5.23
2019-04-21T17:15:29.393Z,5.67
2019-04-21T17:18:06.308Z,4.63
2019-04-21T17:20:33.375Z,5.43
2019-04-21T17:22:51.489Z,5.37
2019-04-21T17:25:24.921Z,7.13
2019-04-21T17:27:54.603Z,9.70
2019-04-21T17:30:24.341Z,11.63
2019-04-21T17:32:55.385Z,11.00
2019-04-21T17:35:24.929Z,11.30
2019-04-21T17:37:54.453Z,13.07
2019-04-21T17:40:24.244Z,15.60
2019-04-21T17:43:02.024Z,13.43
2019-04-21T17:45:25.299Z,16.17
2019-04-21T17:48:02.487Z,13.27
2019-04-21T17:50:47.373Z,13.57
2019-04-21T17:53:26.532Z,13.80
2019-04-21T17:56:15.283Z,13.63
2019-04-21T17:58:46.330Z,14.63
2019-04-21T18:01:19.581Z,14.23
2019-04-21T18:03:54.386Z,16.23
2019-04-21T18:06:14.267Z,15.00
2019-04-21T18:08:55.204Z,16.13
2019-04-21T18:11:12.673Z,14.00
2019-04-21T18:13:35.284Z,14.10
2019-04-21T18:16:15.841Z,12.40
2019-04-21T18:18:36.840Z,13.10
2019-04-21T18:21:16.752Z,12.57
2019-04-21T18:23:57.340Z,11.07
2019-04-21T18:26:28.889Z,10.63
2019-04-21T18:28:53.849Z,10.63
2019-04-21T18:31:22.993Z,11.13
2019-04-21T18:34:06.100Z,10.67
2019-04-21T18:36:59.402Z,10.83
2019-04-21T18:39:46.085Z,11.57
2019-04-21T18:42:45.384Z,12.00
2019-04-21T18:45:55.368Z,11.15
2019-04-21T18:48:19.073Z,9.09
2019-04-21T18:50:55.330Z,11.50
2019-04-21T18:53:37.855Z,10.47
2019-04-21T18:56:00.102Z,12.15
2019-04-21T18:58:26.483Z,11.70
2019-04-21T19:01:03.191Z,14.67
2019-04-21T19:03:35.796Z,14.77
2019-04-21T19:06:08.720Z,14.67
2019-04-21T19:08:53.389Z,14.10
2019-04-21T19:11:25.069Z,12.07
2019-04-21T19:14:32.294Z,11.10
2019-04-21T19:19:34.089Z,10.33
2019-04-21T19:21:40.597Z,10.90
2019-04-21T19:24:24.314Z,11.97
2019-04-21T19:26:54.658Z,11.17
2019-04-21T19:29:23.977Z,12.00
2019-04-21T19:31:49.306Z,10.60
2019-04-21T19:34:11.401Z,8.90
2019-04-21T19:36:34.451Z,8.00
2019-04-21T19:39:13.490Z,7.53
2019-04-21T19:41:50.996Z,8.47
2019-04-21T19:44:26.224Z,9.27
2019-04-21T19:47:05.211Z,8.70
2019-04-21T19:49:38.283Z,8.67
2019-04-21T19:51:54.049Z,9.30
2019-04-21T19:54:25.188Z,8.13
2019-04-21T19:56:49.080Z,7.90
2019-04-21T19:59:30.658Z,8.57
2019-04-21T20:01:51.322Z,8.50
2019-04-21T20:04:31.530Z,8.13
2019-04-21T20:07:03.009Z,8.10
2019-04-21T20:09:39.611Z,7.67
2019-04-21T20:12:10.687Z,7.77
2019-04-21T20:14:55.333Z,8.27
2019-04-21T20:17:09.969Z,8.40
2019-04-21T20:19:28.222Z,7.00
2019-04-21T20:21:59.009Z,6.63
2019-04-21T20:24:32.039Z,7.20
2019-04-21T20:27:07.892Z,6.90
2019-04-21T20:29:52.531Z,6.33
2019-04-21T20:32:26.695Z,7.77
2019-04-21T20:34:56.191Z,6.63
2019-04-21T20:37:29.717Z,6.63
2019-04-21T20:39:46.208Z,8.00
2019-04-21T20:42:21.157Z,7.17
2019-04-21T20:45:16.117Z,6.90
2019-04-21T20:47:22.874Z,6.37
2019-04-21T20:49:58.523Z,6.30
2019-04-21T20:52:38.422Z,7.00
2019-04-21T20:54:59.757Z,6.13
2019-04-21T20:57:32.853Z,6.33
2019-04-21T21:00:07.104Z,5.57
2019-04-21T21:02:41.713Z,4.83
2019-04-21T21:05:00.704Z,5.27
2019-04-21T21:10:10.666Z,5.80
2019-04-21T21:12:51.161Z,5.37
2019-04-21T21:15:03.408Z,6.17
2019-04-21T21:20:21.241Z,6.07
2019-04-21T21:22:42.334Z,7.13
2019-04-21T21:25:23.475Z,9.27
2019-04-21T21:27:41.870Z,8.40
2019-04-21T21:30:15.683Z,8.87
2019-04-21T21:32:50.861Z,9.10
2019-04-21T21:35:20.567Z,9.37
2019-04-21T21:37:54.884Z,9.13
2019-04-21T21:40:26.847Z,9.47
2019-04-21T21:42:43.797Z,9.77
2019-04-21T21:45:17.235Z,9.47
2019-04-21T21:48:04.636Z,10.30
2019-04-21T21:50:23.314Z,9.87
2019-04-21T21:52:57.634Z,10.30
2019-04-21T21:55:15.934Z,8.73
2019-04-21T21:57:50.365Z,10.00
2019-04-21T22:00:17.530Z,10.30
2019-04-21T22:02:51.315Z,10.50
2019-04-21T22:05:24.350Z,9.60
2019-04-21T22:07:52.167Z,8.77
2019-04-21T22:10:23.172Z,9.87
2019-04-21T22:13:00.753Z,9.77
2019-04-21T22:15:26.798Z,9.30
2019-04-21T22:18:19.400Z,8.93
2019-04-21T22:20:44.588Z,10.00
2019-04-21T22:23:06.402Z,9.03
2019-04-21T22:25:33.377Z,8.83
2019-04-21T22:27:59.999Z,7.27
2019-04-21T22:30:38.190Z,8.53
2019-04-21T22:33:06.265Z,7.87
2019-04-21T22:35:38.639Z,7.87
2019-04-21T22:38:19.097Z,8.67
2019-04-21T22:40:46.609Z,8.83
2019-04-21T22:43:16.820Z,8.07
2019-04-21T22:45:36.018Z,8.30
2019-04-21T22:48:13.603Z,8.40
2019-04-21T22:50:38.334Z,7.30
2019-04-21T22:53:10.136Z,6.83
2019-04-21T22:55:39.136Z,6.43
2019-04-21T22:58:09.595Z,7.57
2019-04-21T23:00:46.431Z,7.17
2019-04-21T23:03:17.342Z,7.07
2019-04-21T23:05:44.454Z,7.57
2019-04-21T23:08:13.109Z,7.53
2019-04-21T23:10:52.351Z,6.97
2019-04-21T23:13:18.287Z,7.30
2019-04-21T23:15:51.215Z,7.23
2019-04-21T23:18:30.801Z,6.80
2019-04-21T23:21:03.374Z,6.70
2019-04-21T23:23:42.222Z,6.40
2019-04-21T23:26:09.156Z,6.50
2019-04-21T23:28:40.304Z,6.13
2019-04-21T23:31:12.550Z,6.53
2019-04-21T23:33:23.881Z,6.87
2019-04-21T23:36:05.204Z,7.10
2019-04-21T23:38:30.228Z,6.83
2019-04-21T23:40:59.951Z,7.00
2019-04-21T23:43:30.047Z,7.37
2019-04-21T23:46:04.259Z,6.97
2019-04-21T23:48:43.834Z,7.57
2019-04-21T23:51:13.859Z,7.10
2019-04-21T23:53:33.286Z,6.97
2019-04-21T23:56:03.451Z,7.37
2019-04-21T23:58:35.213Z,7.13
